Terminal Aerodrome Forecast
Issued by NWS

Home | Current Version | Previous Version | Text Only | Print | Product List | Glossary On
Versions: 1 2 3 4 5 6 7 8 9 10 11 12 13
000
FTUS46 KSTO 282300
TAFSAC
TAF
KSAC 282324Z 2900/2924 22010KT P6SM BKN250
     FM290600 17005KT P6SM BKN150
     FM291000 VRB05KT P6SM BKN250
     FM292200 23007KT P6SM FEW250=

USA.gov is the U.S. government's official web portal to all federal, state and local government web resources and services.